Time;durP1;ratioP1;P1;durP2;ratioP2;P2;SDS_P1;SDS_P2;PMS_P1;PMS_P2;Temp;Humidity;BMP_temperature;BMP_pressure;BME280_temperature;BME280_humidity;BME280_pressure;Samples;Min_cycle;Max_cycle;Signal;HPM_P1;HPM_P2
2021/03/10 00:00:31;;;;;;;27.45;11.90;;;5.40;99.90;;;;;;5090089;28;20710;-55
2021/03/10 00:02:57;;;;;;;22.25;11.18;;;5.40;99.90;;;;;;5086889;28;20127;-52
2021/03/10 00:05:23;;;;;;;21.40;11.55;;;5.40;99.90;;;;;;5089982;28;20085;-53
2021/03/10 00:07:49;;;;;;;22.55;12.05;;;5.40;99.90;;;;;;5088634;28;20154;-52
2021/03/10 00:10:15;;;;;;;21.95;11.38;;;5.40;99.90;;;;;;5090279;28;20473;-53
2021/03/10 00:12:42;;;;;;;20.40;11.32;;;5.40;99.90;;;;;;5082984;28;20715;-55
2021/03/10 00:15:10;;;;;;;20.50;12.00;;;5.30;99.90;;;;;;5090961;28;20028;-58
2021/03/10 00:17:37;;;;;;;20.88;12.25;;;5.30;99.90;;;;;;5091060;28;20472;-56
2021/03/10 00:20:04;;;;;;;24.00;11.77;;;5.20;99.90;;;;;;5089732;28;20050;-55
2021/03/10 00:22:30;;;;;;;24.23;12.25;;;5.20;99.90;;;;;;5085759;28;20101;-56
2021/03/10 00:24:56;;;;;;;21.40;11.20;;;5.20;99.90;;;;;;5083820;28;20062;-53
2021/03/10 00:27:25;;;;;;;21.27;12.05;;;5.20;99.90;;;;;;5088014;28;20501;-53
2021/03/10 00:29:58;;;;;;;18.10;10.85;;;5.20;99.90;;;;;;5087464;28;20016;-54
2021/03/10 00:32:26;;;;;;;20.73;11.70;;;5.10;99.90;;;;;;5082747;28;20472;-54
2021/03/10 00:34:53;;;;;;;21.65;12.65;;;5.10;99.90;;;;;;5090809;28;20032;-53
2021/03/10 00:37:19;;;;;;;20.67;12.77;;;5.00;99.90;;;;;;5085692;28;20048;-52
2021/03/10 00:39:46;;;;;;;20.52;12.23;;;5.00;99.90;;;;;;5092528;28;20611;-56
2021/03/10 00:42:12;;;;;;;19.10;11.63;;;5.00;99.90;;;;;;5085545;28;20123;-55
2021/03/10 00:44:38;;;;;;;26.02;12.85;;;5.00;99.90;;;;;;5090964;28;20028;-55
2021/03/10 00:47:04;;;;;;;26.27;13.02;;;5.10;99.90;;;;;;5086199;28;20035;-56
2021/03/10 00:49:30;;;;;;;22.15;13.38;;;5.10;99.90;;;;;;5089084;28;20032;-56
2021/03/10 00:51:56;;;;;;;20.90;13.23;;;5.00;99.90;;;;;;5089775;28;20039;-54
2021/03/10 00:54:21;;;;;;;22.92;13.77;;;5.10;99.90;;;;;;5085934;28;20028;-54
2021/03/10 00:56:47;;;;;;;22.10;13.80;;;5.10;99.90;;;;;;5088022;28;20543;-54
2021/03/10 00:59:13;;;;;;;22.58;12.35;;;5.10;99.90;;;;;;5091115;28;20390;-53
2021/03/10 01:01:38;;;;;;;19.60;12.32;;;5.10;99.90;;;;;;5083756;28;20024;-56
2021/03/10 01:04:04;;;;;;;21.50;11.70;;;5.10;99.90;;;;;;5088480;28;20020;-55
2021/03/10 01:06:30;;;;;;;21.38;12.60;;;5.10;99.90;;;;;;5090440;28;20535;-52
2021/03/10 01:08:56;;;;;;;21.17;13.88;;;5.10;99.90;;;;;;5089914;28;20032;-55
2021/03/10 01:11:21;;;;;;;20.92;13.48;;;5.00;99.90;;;;;;5084491;28;20097;-52
2021/03/10 01:13:47;;;;;;;19.17;12.75;;;5.00;99.90;;;;;;5089851;28;20473;-54
2021/03/10 01:16:13;;;;;;;17.42;12.07;;;5.00;99.90;;;;;;5084365;28;20028;-52
2021/03/10 01:18:39;;;;;;;18.95;11.88;;;5.00;99.90;;;;;;5088632;28;20025;-50
2021/03/10 01:21:05;;;;;;;22.85;12.07;;;5.00;99.90;;;;;;5086844;28;20036;-50
2021/03/10 01:23:31;;;;;;;19.85;11.80;;;4.90;99.90;;;;;;5088241;28;20047;-53
2021/03/10 01:25:56;;;;;;;27.35;13.68;;;4.70;99.90;;;;;;5088103;28;20542;-51
2021/03/10 01:28:22;;;;;;;23.65;13.90;;;4.60;99.90;;;;;;5084669;28;20389;-52
2021/03/10 01:30:47;;;;;;;21.00;14.13;;;4.40;99.90;;;;;;5085743;28;20028;-50
2021/03/10 01:33:13;;;;;;;23.00;13.43;;;4.40;99.90;;;;;;5087416;28;20447;-51
2021/03/10 01:35:39;;;;;;;23.20;14.05;;;4.30;99.90;;;;;;5087652;28;20325;-53
2021/03/10 01:38:04;;;;;;;21.23;13.27;;;4.20;99.90;;;;;;5088300;28;20028;-51
2021/03/10 01:40:30;;;;;;;20.92;14.60;;;4.20;99.90;;;;;;5089010;28;20382;-53
2021/03/10 01:43:01;;;;;;;24.92;14.05;;;4.20;99.90;;;;;;5084846;28;20028;-52
2021/03/10 01:45:27;;;;;;;20.83;12.35;;;4.20;99.90;;;;;;5088040;28;20028;-53
2021/03/10 01:47:53;;;;;;;22.10;13.60;;;4.20;99.90;;;;;;5089045;28;20042;-51
2021/03/10 01:50:20;;;;;;;25.35;14.32;;;4.20;99.90;;;;;;5088932;28;20025;-53
2021/03/10 01:53:30;;;;;;;24.98;12.82;;;4.10;99.90;;;;;;5088739;28;20524;-52
2021/03/10 01:55:56;;;;;;;23.83;13.13;;;4.10;99.90;;;;;;5083698;28;20505;-51
2021/03/10 01:58:22;;;;;;;29.05;13.73;;;4.00;99.90;;;;;;5086803;28;20039;-51
2021/03/10 02:00:48;;;;;;;22.42;13.63;;;4.00;99.90;;;;;;5088481;28;20024;-51
2021/03/10 02:03:13;;;;;;;27.30;15.00;;;4.00;99.90;;;;;;5085048;28;20032;-55
2021/03/10 02:05:39;;;;;;;27.65;16.70;;;3.90;99.90;;;;;;5086285;28;20027;-54
2021/03/10 02:08:43;;;;;;;25.73;14.18;;;4.10;99.90;;;;;;5089297;28;20031;-53
2021/03/10 02:11:31;;;;;;;24.35;13.20;;;4.10;99.90;;;;;;5087191;28;20024;-51
2021/03/10 02:14:18;;;;;;;28.42;16.83;;;4.00;99.90;;;;;;5086243;28;20122;-52
2021/03/10 02:16:57;;;;;;;26.08;13.88;;;4.00;99.90;;;;;;5087969;28;20689;-52
2021/03/10 02:19:31;;;;;;;23.17;14.68;;;4.00;99.90;;;;;;5081099;28;20024;-54
2021/03/10 02:22:06;;;;;;;;;;;4.00;99.90;;;;;;5086189;28;20028;-54
2021/03/10 02:25:05;;;;;;;26.05;14.98;;;3.80;99.90;;;;;;5089160;28;19908;-54
2021/03/10 02:27:34;;;;;;;32.25;16.88;;;3.70;99.90;;;;;;5086169;28;20032;-54
2021/03/10 02:30:04;;;;;;;24.92;15.45;;;3.70;99.90;;;;;;5086901;28;20034;-52
2021/03/10 02:32:32;;;;;;;25.88;15.23;;;3.70;99.90;;;;;;5088546;28;20070;-52
2021/03/10 02:34:57;;;;;;;24.75;15.85;;;3.70;99.90;;;;;;5081159;28;20077;-54
2021/03/10 02:37:26;;;;;;;27.15;15.95;;;3.80;99.90;;;;;;5087323;28;20032;-53
2021/03/10 02:39:52;;;;;;;27.00;14.90;;;3.90;99.90;;;;;;5087948;28;20473;-51
2021/03/10 02:42:18;;;;;;;24.52;15.18;;;3.90;99.90;;;;;;5082976;28;20074;-51
2021/03/10 02:44:45;;;;;;;28.70;16.23;;;3.90;99.90;;;;;;5085722;28;20032;-52
2021/03/10 02:47:11;;;;;;;27.05;16.40;;;4.00;99.90;;;;;;5090184;28;20067;-55
2021/03/10 02:49:37;;;;;;;22.48;14.60;;;3.90;99.90;;;;;;5086474;28;20105;-53
2021/03/10 02:52:04;;;;;;;29.85;15.82;;;4.00;99.90;;;;;;5087134;28;20060;-54
2021/03/10 02:54:31;;;;;;;28.13;15.52;;;4.00;99.90;;;;;;5086508;28;20028;-54
2021/03/10 02:56:56;;;;;;;24.52;16.25;;;4.00;99.90;;;;;;5085276;28;20024;-52
2021/03/10 02:59:22;;;;;;;26.50;16.35;;;4.00;99.90;;;;;;5088211;28;20423;-55
2021/03/10 03:01:49;;;;;;;26.00;14.98;;;4.10;99.90;;;;;;5087754;28;20032;-52
2021/03/10 03:04:15;;;;;;;23.52;15.10;;;4.10;99.90;;;;;;5087643;28;20044;-55
2021/03/10 03:06:40;;;;;;;27.80;15.00;;;4.10;99.90;;;;;;5087878;28;20427;-52
2021/03/10 03:09:07;;;;;;;24.35;14.48;;;4.10;99.90;;;;;;5087639;28;20447;-53
2021/03/10 03:11:32;;;;;;;23.70;14.52;;;4.20;99.90;;;;;;5087480;28;20016;-54
2021/03/10 03:14:03;;;;;;;24.13;14.23;;;4.20;99.90;;;;;;5085949;28;20021;-53
2021/03/10 03:16:30;;;;;;;27.77;14.55;;;4.00;99.90;;;;;;5084662;28;20021;-52
2021/03/10 03:18:55;;;;;;;22.42;14.10;;;3.80;99.90;;;;;;5088417;28;20028;-50
2021/03/10 03:21:22;;;;;;;28.05;15.10;;;3.70;99.90;;;;;;5085587;28;20698;-51
2021/03/10 03:23:50;;;;;;;26.77;15.10;;;3.70;99.90;;;;;;5085180;28;20020;-51
2021/03/10 03:26:17;;;;;;;27.95;15.32;;;3.60;99.90;;;;;;5088853;28;20028;-55
2021/03/10 03:28:44;;;;;;;24.75;15.73;;;3.70;99.90;;;;;;5090455;28;20077;-54
2021/03/10 03:31:12;;;;;;;22.80;15.02;;;3.70;99.90;;;;;;5090708;28;20107;-52
2021/03/10 03:33:38;;;;;;;24.95;15.25;;;3.70;99.90;;;;;;5092843;28;20020;-51
2021/03/10 03:36:04;;;;;;;26.83;16.15;;;3.80;99.90;;;;;;5090907;28;20390;-54
2021/03/10 03:38:30;;;;;;;27.40;14.18;;;3.80;99.90;;;;;;5088643;28;20040;-53
2021/03/10 03:40:56;;;;;;;29.30;15.32;;;3.80;99.90;;;;;;5082257;28;20144;-52
2021/03/10 03:43:28;;;;;;;23.95;14.73;;;3.80;99.90;;;;;;5092501;28;20533;-55
2021/03/10 03:45:54;;;;;;;22.98;13.70;;;3.90;99.90;;;;;;5092212;28;20069;-53
2021/03/10 03:48:20;;;;;;;23.60;14.43;;;3.90;99.90;;;;;;5090119;28;20036;-53
2021/03/10 03:50:46;;;;;;;22.58;13.63;;;3.90;99.90;;;;;;5090795;28;20036;-55
2021/03/10 03:53:12;;;;;;;21.80;14.07;;;3.90;99.90;;;;;;5091916;28;20020;-54
2021/03/10 03:55:38;;;;;;;21.67;13.60;;;3.80;99.90;;;;;;5091142;28;20417;-52
2021/03/10 03:58:04;;;;;;;27.05;15.38;;;3.80;99.90;;;;;;5091128;28;20130;-52
2021/03/10 04:00:30;;;;;;;29.33;15.30;;;3.70;99.90;;;;;;5088082;28;20142;-53
2021/03/10 04:02:56;;;;;;;25.20;14.27;;;3.50;99.90;;;;;;5087979;28;20102;-52
2021/03/10 04:05:22;;;;;;;30.55;15.50;;;3.40;99.90;;;;;;5088412;28;20172;-51
2021/03/10 04:07:59;;;;;;;28.05;16.08;;;3.30;99.90;;;;;;5090796;28;20020;-52
2021/03/10 04:10:30;;;;;;;25.45;16.30;;;3.30;99.90;;;;;;5083058;28;20098;-54
2021/03/10 04:12:56;;;;;;;25.35;14.93;;;3.30;99.90;;;;;;5092457;28;20055;-54
2021/03/10 04:15:24;;;;;;;28.80;16.58;;;3.40;99.90;;;;;;5090151;28;20024;-54
2021/03/10 04:17:50;;;;;;;29.88;16.50;;;3.30;99.90;;;;;;5087805;28;20569;-51
2021/03/10 04:20:20;;;;;;;25.30;15.15;;;3.40;99.90;;;;;;5089424;28;20099;-54
2021/03/10 04:22:46;;;;;;;26.65;15.23;;;3.40;99.90;;;;;;5088043;28;20072;-54
2021/03/10 04:25:13;;;;;;;28.27;16.67;;;3.50;99.90;;;;;;5089950;28;20039;-52
2021/03/10 04:27:39;;;;;;;35.33;17.15;;;3.40;99.90;;;;;;5091056;28;20032;-55
2021/03/10 04:30:08;;;;;;;34.65;19.52;;;3.30;99.90;;;;;;5087063;28;20036;-52
2021/03/10 04:32:35;;;;;;;30.20;17.27;;;3.30;99.90;;;;;;5091155;28;20039;-54
2021/03/10 04:35:01;;;;;;;28.60;16.10;;;3.20;99.90;;;;;;5090970;28;20035;-54
2021/03/10 04:37:26;;;;;;;26.60;16.48;;;3.20;99.90;;;;;;5090086;28;20028;-53
2021/03/10 04:39:52;;;;;;;32.88;17.30;;;3.20;99.90;;;;;;5090061;28;20026;-52
2021/03/10 04:42:18;;;;;;;31.25;16.23;;;3.20;99.90;;;;;;5090690;28;20066;-51
2021/03/10 04:44:43;;;;;;;34.33;17.92;;;3.20;99.90;;;;;;5089570;28;20478;-50
2021/03/10 04:47:09;;;;;;;34.42;16.88;;;3.30;99.90;;;;;;5088532;28;20035;-51
2021/03/10 04:49:34;;;;;;;29.50;16.42;;;3.30;99.90;;;;;;5090124;28;20560;-52
2021/03/10 04:52:00;;;;;;;27.40;15.43;;;3.40;99.90;;;;;;5089491;28;20194;-53
2021/03/10 04:54:26;;;;;;;27.70;15.93;;;3.40;99.90;;;;;;5087940;28;20064;-51
2021/03/10 04:56:51;;;;;;;28.65;17.20;;;3.40;99.90;;;;;;5091573;28;20417;-52
2021/03/10 04:59:17;;;;;;;27.58;16.33;;;3.40;99.90;;;;;;5090007;28;20093;-56
2021/03/10 05:01:43;;;;;;;25.40;15.32;;;3.30;99.90;;;;;;5086772;28;20023;-54
2021/03/10 05:04:08;;;;;;;31.55;16.30;;;3.30;99.90;;;;;;5086666;28;20551;-53
2021/03/10 05:09:42;;;;;;;29.33;16.67;;;3.30;99.90;;;;;;5085972;28;20034;-55
2021/03/10 05:12:08;;;;;;;30.25;17.50;;;3.30;99.90;;;;;;5087862;28;20466;-52
2021/03/10 05:14:34;;;;;;;26.95;16.67;;;3.40;99.90;;;;;;5090389;28;20111;-52
2021/03/10 05:16:59;;;;;;;28.73;16.88;;;3.40;99.90;;;;;;5089722;28;20103;-55
2021/03/10 05:19:25;;;;;;;27.67;17.50;;;3.50;99.90;;;;;;5088522;28;20042;-51
2021/03/10 05:21:51;;;;;;;33.00;17.48;;;3.60;99.90;;;;;;5088254;28;20049;-52
2021/03/10 05:24:16;;;;;;;25.30;15.70;;;3.70;99.90;;;;;;5088076;28;20028;-51
2021/03/10 05:26:42;;;;;;;31.20;18.75;;;3.70;99.90;;;;;;5088333;28;20055;-55
2021/03/10 05:29:08;;;;;;;30.42;17.25;;;3.80;99.90;;;;;;5088465;28;20028;-52
2021/03/10 05:31:33;;;;;;;32.97;20.27;;;3.90;99.90;;;;;;5090044;28;20055;-52
2021/03/10 05:33:59;;;;;;;35.88;20.50;;;3.90;99.90;;;;;;5086955;28;20020;-52
2021/03/10 05:36:25;;;;;;;47.80;25.30;;;4.00;99.90;;;;;;5088758;28;20055;-52
2021/03/10 05:38:51;;;;;;;47.85;25.08;;;4.10;99.90;;;;;;5089897;28;20024;-54
2021/03/10 05:41:18;;;;;;;52.53;27.63;;;4.10;99.90;;;;;;5082208;28;20028;-51
2021/03/10 05:43:44;;;;;;;50.08;25.52;;;4.20;99.90;;;;;;5089212;28;20016;-52
2021/03/10 05:46:11;;;;;;;45.58;26.38;;;4.20;99.90;;;;;;5085638;28;20160;-52
2021/03/10 05:48:36;;;;;;;40.15;23.17;;;4.20;99.90;;;;;;5083155;28;20046;-61
2021/03/10 05:51:03;;;;;;;32.78;19.42;;;4.20;99.90;;;;;;5088369;28;20024;-53
2021/03/10 05:53:33;;;;;;;34.55;19.13;;;4.10;99.90;;;;;;5086553;28;20066;-51
2021/03/10 05:56:00;;;;;;;36.63;21.17;;;4.10;99.90;;;;;;5090454;28;20038;-54
2021/03/10 05:58:26;;;;;;;36.38;20.60;;;4.10;99.90;;;;;;5082874;28;20051;-53
2021/03/10 06:00:51;;;;;;;33.15;19.05;;;4.10;99.90;;;;;;5088313;28;20106;-53
2021/03/10 06:03:17;;;;;;;36.15;19.58;;;4.10;99.90;;;;;;5090899;28;20028;-54
2021/03/10 06:05:43;;;;;;;40.20;20.02;;;4.10;99.90;;;;;;5088273;28;20085;-54
2021/03/10 06:08:15;;;;;;;37.47;20.50;;;4.20;99.90;;;;;;5086142;28;20021;-52
2021/03/10 06:10:48;;;;;;;38.83;21.83;;;4.20;99.90;;;;;;5086425;28;20028;-54
2021/03/10 06:13:24;;;;;;;48.53;25.90;;;4.20;99.90;;;;;;5083018;28;20035;-53
2021/03/10 06:15:52;;;;;;;47.13;25.42;;;4.20;99.90;;;;;;5090797;28;20478;-53
2021/03/10 06:18:32;;;;;;;47.13;25.65;;;4.20;99.90;;;;;;5089475;28;20024;-53
2021/03/10 06:21:04;;;;;;;48.92;27.00;;;4.20;99.90;;;;;;5088164;28;20036;-53
2021/03/10 06:23:29;;;;;;;48.30;26.70;;;4.20;99.90;;;;;;5088805;28;20035;-54
2021/03/10 06:25:55;;;;;;;48.55;26.75;;;4.20;99.90;;;;;;5087705;28;20524;-51
2021/03/10 06:28:20;;;;;;;46.58;25.23;;;4.20;99.90;;;;;;5088807;28;20055;-52
2021/03/10 06:30:46;;;;;;;56.58;27.75;;;4.30;99.90;;;;;;5088531;28;20443;-53
2021/03/10 06:33:22;;;;;;;57.70;27.05;;;4.40;99.90;;;;;;5084640;28;20115;-53
2021/03/10 06:35:48;;;;;;;53.13;27.70;;;4.50;99.90;;;;;;5084562;28;20104;-55
2021/03/10 06:38:16;;;;;;;55.13;28.13;;;4.50;99.90;;;;;;5087725;28;20116;-55
2021/03/10 06:40:49;;;;;;;54.97;28.30;;;4.60;99.90;;;;;;5084629;28;20482;-54
2021/03/10 06:43:15;;;;;;;55.47;28.70;;;4.60;99.90;;;;;;5090016;28;20040;-53
2021/03/10 06:45:41;;;;;;;60.17;29.33;;;4.60;99.90;;;;;;5087875;28;20099;-52
2021/03/10 06:48:17;;;;;;;54.67;28.38;;;4.60;99.90;;;;;;5082770;28;20108;-54
2021/03/10 06:50:43;;;;;;;53.28;28.08;;;4.70;99.90;;;;;;5088562;28;20036;-52
2021/03/10 06:53:09;;;;;;;54.70;28.23;;;4.80;99.90;;;;;;5088112;28;20021;-55
2021/03/10 06:55:44;;;;;;;52.08;28.38;;;4.80;99.90;;;;;;5081278;28;20036;-53
2021/03/10 06:58:11;;;;;;;57.63;29.20;;;4.80;99.90;;;;;;5087730;28;20031;-54
2021/03/10 07:00:37;;;;;;;53.72;27.33;;;4.90;99.90;;;;;;5077641;28;20557;-50
2021/03/10 07:03:04;;;;;;;52.30;26.50;;;5.00;99.90;;;;;;5087031;28;20028;-52
2021/03/10 07:05:31;;;;;;;54.38;28.63;;;5.00;99.90;;;;;;5088406;28;20119;-53
2021/03/10 07:07:57;;;;;;;57.78;29.23;;;5.10;99.90;;;;;;5090514;28;20024;-52
2021/03/10 07:10:26;;;;;;;51.55;26.95;;;5.10;99.90;;;;;;5070257;28;20039;-49
2021/03/10 07:12:55;;;;;;;53.72;28.67;;;5.20;99.90;;;;;;5078056;28;20031;-51
2021/03/10 07:15:20;;;;;;;56.88;28.95;;;5.20;99.90;;;;;;5086172;28;20031;-50
2021/03/10 07:17:48;;;;;;;60.92;29.98;;;5.20;99.90;;;;;;5088462;28;20031;-50
2021/03/10 07:20:14;;;;;;;53.80;29.08;;;5.30;99.90;;;;;;5088605;28;20115;-50
2021/03/10 07:23:09;;;;;;;58.13;28.95;;;5.30;99.90;;;;;;5088420;28;20031;-52
2021/03/10 07:25:41;;;;;;;52.45;26.30;;;5.30;99.90;;;;;;5088496;28;20039;-49
2021/03/10 07:28:15;;;;;;;49.50;25.55;;;5.40;99.90;;;;;;5089014;28;20049;-50
2021/03/10 07:30:48;;;;;;;56.30;27.70;;;5.50;99.90;;;;;;5089698;28;20465;-51
2021/03/10 07:33:16;;;;;;;49.72;26.63;;;5.50;99.90;;;;;;5088002;28;20432;-50
2021/03/10 07:35:49;;;;;;;57.28;26.85;;;5.50;99.90;;;;;;5087937;28;20084;-54
2021/03/10 07:38:15;;;;;;;59.00;27.50;;;5.60;99.90;;;;;;5089463;28;20024;-53
2021/03/10 07:40:59;;;;;;;54.45;26.65;;;5.70;99.90;;;;;;5088697;28;20111;-51
2021/03/10 07:43:47;;;;;;;56.95;26.80;;;5.70;99.90;;;;;;5087248;28;20111;-50
2021/03/10 07:46:34;;;;;;;58.58;27.10;;;5.80;99.90;;;;;;5088242;28;20478;-52
2021/03/10 07:49:14;;;;;;;62.95;27.73;;;5.80;99.90;;;;;;5086113;28;20024;-50
2021/03/10 07:51:39;;;;;;;61.20;28.38;;;5.80;99.90;;;;;;5086938;28;20110;-51
2021/03/10 07:54:24;;;;;;;62.53;28.55;;;5.90;99.90;;;;;;5088456;28;20403;-51
2021/03/10 07:56:50;;;;;;;60.90;28.85;;;5.90;99.90;;;;;;5087801;28;20500;-50
2021/03/10 07:59:18;;;;;;;64.10;28.80;;;5.90;99.90;;;;;;5089371;28;20107;-51
2021/03/10 08:01:45;;;;;;;58.08;29.08;;;5.90;99.90;;;;;;5088298;28;20423;-50
2021/03/10 08:04:16;;;;;;;59.80;27.67;;;6.00;99.90;;;;;;5086914;28;20035;-49
2021/03/10 08:06:50;;;;;;;58.58;27.50;;;6.10;99.90;;;;;;5088876;28;20451;-49
2021/03/10 08:09:18;;;;;;;56.95;27.65;;;6.10;99.90;;;;;;5088244;28;20024;-51
2021/03/10 08:11:45;;;;;;;55.38;27.13;;;6.10;99.90;;;;;;5089206;28;20080;-52
2021/03/10 08:14:14;;;;;;;61.88;28.15;;;6.10;99.90;;;;;;5089994;28;20043;-50
2021/03/10 08:16:52;;;;;;;64.95;28.38;;;6.10;99.90;;;;;;5092456;28;20031;-51
2021/03/10 08:19:21;;;;;;;55.72;28.38;;;6.20;99.90;;;;;;5092515;28;20051;-50
2021/03/10 08:21:53;;;;;;;63.15;28.25;;;6.20;99.90;;;;;;5090277;28;20035;-50
2021/03/10 08:24:20;;;;;;;58.17;28.63;;;6.20;99.90;;;;;;5090156;28;20024;-51
2021/03/10 08:27:04;;;;;;;57.03;27.33;;;6.20;99.90;;;;;;5081819;28;20086;-53
2021/03/10 08:29:34;;;;;;;54.47;26.73;;;6.20;99.90;;;;;;5087492;28;20024;-49
2021/03/10 08:32:00;;;;;;;60.28;28.10;;;6.20;99.90;;;;;;5082672;28;20031;-50
2021/03/10 08:34:36;;;;;;;66.07;29.25;;;6.30;99.90;;;;;;5088835;28;20028;-53
2021/03/10 08:37:12;;;;;;;61.58;28.30;;;6.30;99.90;;;;;;5073725;28;20028;-49
2021/03/10 08:39:42;;;;;;;53.75;26.95;;;6.30;99.90;;;;;;5090748;28;20035;-49
2021/03/10 08:42:09;;;;;;;63.45;29.90;;;6.40;99.90;;;;;;5090216;28;20028;-53
2021/03/10 08:44:43;;;;;;;55.85;25.77;;;6.50;99.90;;;;;;5090292;28;20155;-50
2021/03/10 08:47:14;;;;;;;57.88;29.33;;;6.60;99.90;;;;;;5090952;28;20020;-49
2021/03/10 08:49:41;;;;;;;54.58;27.50;;;6.70;99.90;;;;;;5090993;28;20047;-50
2021/03/10 08:52:06;;;;;;;63.60;28.17;;;6.70;99.90;;;;;;5090956;28;20031;-49
2021/03/10 08:54:43;;;;;;;61.47;27.88;;;6.80;99.90;;;;;;5091319;28;20012;-50
2021/03/10 08:57:09;;;;;;;60.80;28.42;;;6.90;99.90;;;;;;5090634;28;20105;-51
2021/03/10 08:59:36;;;;;;;63.30;28.50;;;7.00;99.90;;;;;;5089329;28;20101;-51
2021/03/10 09:02:02;;;;;;;63.40;29.17;;;7.10;99.90;;;;;;5091281;28;20024;-54
2021/03/10 09:04:28;;;;;;;55.08;27.80;;;7.10;99.90;;;;;;5091758;28;20027;-50
2021/03/10 09:06:56;;;;;;;59.33;27.63;;;7.20;99.90;;;;;;5090434;28;20931;-52
2021/03/10 09:09:22;;;;;;;53.15;26.45;;;7.20;99.90;;;;;;5087319;28;20040;-50
2021/03/10 09:11:48;;;;;;;56.20;27.65;;;7.30;99.90;;;;;;5090489;28;20042;-54
2021/03/10 09:14:14;;;;;;;58.35;29.10;;;7.30;99.90;;;;;;5090273;28;20057;-51
2021/03/10 09:16:59;;;;;;;63.35;30.33;;;7.40;99.90;;;;;;5091408;28;20016;-50
2021/03/10 09:19:30;;;;;;;60.83;30.90;;;7.40;99.90;;;;;;5090380;28;20024;-51
2021/03/10 09:22:11;;;;;;;55.15;28.27;;;7.50;99.90;;;;;;5091539;28;20021;-51
2021/03/10 09:24:52;;;;;;;60.60;29.27;;;7.60;99.90;;;;;;5088853;28;20028;-51
2021/03/10 09:27:20;;;;;;;62.65;30.40;;;7.70;99.90;;;;;;5085145;28;20512;-50
2021/03/10 09:29:46;;;;;;;56.35;28.98;;;7.80;99.90;;;;;;5090429;28;20032;-53
2021/03/10 09:32:12;;;;;;;65.20;30.63;;;7.80;99.90;;;;;;5090778;28;20031;-53
2021/03/10 09:34:38;;;;;;;63.25;32.45;;;7.90;99.90;;;;;;5083108;28;20408;-50
2021/03/10 09:37:09;;;;;;;73.40;32.88;;;8.00;99.90;;;;;;5084214;28;20031;-52
2021/03/10 09:39:48;;;;;;;67.38;34.42;;;8.00;99.90;;;;;;5084168;28;20340;-52
2021/03/10 09:42:15;;;;;;;63.70;31.45;;;8.10;99.90;;;;;;5088348;28;20024;-54
2021/03/10 09:44:46;;;;;;;62.92;32.22;;;8.20;99.90;;;;;;5087103;28;20107;-53
2021/03/10 09:47:13;;;;;;;67.32;31.98;;;8.20;99.90;;;;;;5087393;28;20116;-50
2021/03/10 09:49:47;;;;;;;64.95;31.95;;;8.30;99.90;;;;;;5081666;28;20961;-50
2021/03/10 09:52:13;;;;;;;52.15;24.80;;;8.40;99.90;;;;;;5085889;28;20032;-52
2021/03/10 09:54:53;;;;;;;66.25;32.60;;;8.50;99.90;;;;;;5089506;28;20034;-53
2021/03/10 09:57:27;;;;;;;68.40;33.50;;;8.50;99.90;;;;;;5089397;28;20451;-52
2021/03/10 09:59:54;;;;;;;67.93;32.63;;;8.50;99.90;;;;;;5090077;28;20082;-54
2021/03/10 10:02:20;;;;;;;71.38;34.20;;;8.60;99.90;;;;;;5089024;28;20032;-51
2021/03/10 10:04:59;;;;;;;64.28;33.80;;;8.80;99.90;;;;;;5091621;28;20111;-51
2021/03/10 10:07:27;;;;;;;62.88;30.92;;;8.90;99.90;;;;;;5090750;28;20043;-53
2021/03/10 10:09:53;;;;;;;64.97;33.95;;;9.00;99.90;;;;;;5089078;28;20047;-52
2021/03/10 10:12:19;;;;;;;70.18;33.00;;;9.10;99.90;;;;;;5088260;28;20029;-51
2021/03/10 10:14:45;;;;;;;69.88;32.90;;;9.10;99.90;;;;;;5086997;28;20031;-50
2021/03/10 10:17:11;;;;;;;61.15;32.10;;;9.10;99.90;;;;;;5085823;28;20031;-51
2021/03/10 10:19:37;;;;;;;59.30;30.58;;;9.10;99.90;;;;;;5089201;28;20089;-52
2021/03/10 10:22:02;;;;;;;70.35;33.70;;;9.20;99.90;;;;;;5089232;28;20042;-51
2021/03/10 10:24:28;;;;;;;73.93;32.90;;;9.30;99.90;;;;;;5090270;28;20032;-52
2021/03/10 10:26:54;;;;;;;65.50;31.98;;;9.40;99.90;;;;;;5090077;28;20058;-51
2021/03/10 10:29:20;;;;;;;61.75;30.70;;;9.50;99.90;;;;;;5090066;28;20039;-52
2021/03/10 10:31:46;;;;;;;62.10;31.55;;;9.70;99.90;;;;;;5088048;28;20431;-49
2021/03/10 10:34:12;;;;;;;66.60;32.13;;;9.80;99.90;;;;;;5088290;28;20089;-50
2021/03/10 10:36:38;;;;;;;62.80;30.88;;;9.80;99.90;;;;;;5089414;28;20028;-49
2021/03/10 10:39:04;;;;;;;60.45;30.55;;;10.00;99.90;;;;;;5085232;28;20027;-50
2021/03/10 10:41:29;;;;;;;63.90;31.85;;;10.00;99.90;;;;;;5087414;28;20035;-50
2021/03/10 10:43:55;;;;;;;60.45;32.13;;;10.20;99.90;;;;;;5088223;28;20036;-53
2021/03/10 10:46:20;;;;;;;59.60;30.40;;;10.30;99.90;;;;;;5089486;28;20032;-54
2021/03/10 10:48:46;;;;;;;64.10;31.45;;;10.40;99.90;;;;;;5089033;28;20088;-54
2021/03/10 10:51:12;;;;;;;63.22;31.25;;;10.50;99.90;;;;;;5087565;28;20489;-52
2021/03/10 10:53:37;;;;;;;63.20;32.25;;;10.50;99.90;;;;;;5082033;28;20062;-51
2021/03/10 10:56:03;;;;;;;58.40;32.20;;;10.50;99.90;;;;;;5087729;28;20107;-50
2021/03/10 10:58:29;;;;;;;59.65;31.80;;;10.60;99.90;;;;;;5086687;28;20043;-52
2021/03/10 11:00:54;;;;;;;60.17;31.02;;;10.50;99.90;;;;;;5089528;28;20043;-51
2021/03/10 11:03:22;;;;;;;56.65;30.50;;;10.40;99.90;;;;;;5088440;28;20035;-53
2021/03/10 11:05:48;;;;;;;57.78;29.17;;;10.50;99.90;;;;;;5088645;28;20028;-51
2021/03/10 11:08:15;;;;;;;56.17;28.30;;;10.60;99.90;;;;;;5088103;28;20055;-52
2021/03/10 11:10:40;;;;;;;50.78;27.73;;;10.70;99.90;;;;;;5082333;28;20029;-54
2021/03/10 11:13:06;;;;;;;52.30;28.63;;;10.80;99.90;;;;;;5086188;28;20029;-53
2021/03/10 11:15:31;;;;;;;55.35;27.52;;;10.90;99.90;;;;;;5087148;28;20126;-51
2021/03/10 11:17:57;;;;;;;53.95;26.27;;;11.10;99.90;;;;;;5089046;28;20028;-54
2021/03/10 11:20:23;;;;;;;48.90;26.58;;;11.10;99.90;;;;;;5088453;28;20108;-52
2021/03/10 11:22:48;;;;;;;48.22;26.90;;;11.30;99.90;;;;;;5088142;28;20043;-51
2021/03/10 11:25:14;;;;;;;48.35;26.90;;;11.30;99.90;;;;;;5087666;28;20078;-50
2021/03/10 11:27:40;;;;;;;49.95;26.55;;;11.30;99.90;;;;;;5089199;28;20111;-51
2021/03/10 11:30:07;;;;;;;48.65;25.42;;;11.40;99.90;;;;;;5089261;28;20107;-50
2021/03/10 11:32:33;;;;;;;45.95;24.48;;;11.30;99.90;;;;;;5087120;28;20482;-51
2021/03/10 11:34:59;;;;;;;37.40;20.30;;;11.30;99.90;;;;;;5088540;28;20028;-51
2021/03/10 11:37:25;;;;;;;38.97;20.30;;;11.40;99.90;;;;;;5086504;28;20496;-51
2021/03/10 11:43:16;;;;;;;41.80;19.15;;;11.50;99.90;;;;;;5070042;28;20093;-50
2021/03/10 11:45:44;;;;;;;22.52;12.65;;;11.50;99.90;;;;;;5084624;28;20036;-50
2021/03/10 11:48:29;;;;;;;16.52;8.05;;;11.60;99.90;;;;;;5023409;28;20036;-51
2021/03/10 11:50:55;;;;;;;12.90;6.50;;;11.70;99.90;;;;;;5083413;28;20550;-50
2021/03/10 11:53:20;;;;;;;10.00;6.75;;;12.00;99.90;;;;;;5088105;28;20397;-51
2021/03/10 11:55:48;;;;;;;17.38;7.28;;;12.00;99.90;;;;;;5092894;28;20027;-52
2021/03/10 11:58:14;;;;;;;14.05;7.40;;;12.10;99.90;;;;;;5089501;28;20031;-54
2021/03/10 12:00:41;;;;;;;13.60;6.38;;;12.20;99.90;;;;;;5088402;28;20032;-51
2021/03/10 12:03:06;;;;;;;14.13;7.38;;;12.10;99.90;;;;;;5092855;28;20027;-51
2021/03/10 12:05:32;;;;;;;15.52;8.05;;;11.90;99.90;;;;;;5091898;28;20043;-51
2021/03/10 12:07:58;;;;;;;13.13;7.40;;;12.00;99.90;;;;;;5092698;28;20031;-52
2021/03/10 12:10:23;;;;;;;10.70;6.43;;;12.20;99.90;;;;;;5092537;28;20028;-51
2021/03/10 12:12:49;;;;;;;11.70;6.60;;;12.10;99.90;;;;;;5090083;28;20102;-51
2021/03/10 12:15:15;;;;;;;12.93;7.57;;;12.20;99.90;;;;;;5093251;28;20028;-54
2021/03/10 12:17:41;;;;;;;16.02;8.30;;;12.30;99.90;;;;;;5088969;28;20481;-53
2021/03/10 12:20:07;;;;;;;14.25;7.85;;;12.40;99.90;;;;;;5089563;28;20022;-51
2021/03/10 12:22:33;;;;;;;17.15;8.48;;;12.50;99.90;;;;;;5093200;28;20059;-50
2021/03/10 12:24:59;;;;;;;12.95;7.72;;;12.60;99.90;;;;;;5090430;28;20036;-52
2021/03/10 12:27:24;;;;;;;14.07;8.20;;;12.40;99.90;;;;;;5091391;28;20051;-54
2021/03/10 12:29:54;;;;;;;12.43;8.05;;;12.40;99.90;;;;;;5092028;28;20028;-53
2021/03/10 12:32:21;;;;;;;15.95;8.13;;;12.40;99.90;;;;;;5089392;28;20475;-51
2021/03/10 12:34:52;;;;;;;15.13;8.15;;;12.40;99.90;;;;;;5084624;28;20032;-51
2021/03/10 12:37:18;;;;;;;18.35;9.23;;;12.40;99.90;;;;;;5089613;28;20074;-53
2021/03/10 12:39:44;;;;;;;16.83;8.63;;;12.40;99.90;;;;;;5087417;28;20040;-52
2021/03/10 12:42:10;;;;;;;23.67;10.57;;;12.40;99.90;;;;;;5089974;28;20036;-50
2021/03/10 12:44:39;;;;;;;17.10;9.10;;;12.60;99.90;;;;;;5091137;28;20056;-53
2021/03/10 12:47:05;;;;;;;18.33;9.05;;;12.50;99.90;;;;;;5089055;28;20032;-51